ARG1814 SABE-SAVY
Flight info
| Callsign | ARG1814 |
|---|---|
| Flight time | 1h 38m |
| Altitude | 38000 |
| Route | PTA8 GBE UT694 IREMO UP664 VIE DCT MIGUS |
| Aircraft | B738/M-SDE2E3FGHIRWXY/LB1 |
Departure
| Time | 2026-04-26 16:30 |
|---|---|
| Airport | Aeroparque Jorge Newbery (SABE) |
Arrival
| Time | 2026-04-26 18:08 |
|---|---|
| Airport | El Tehuelche Airport (SAVY) |
| Time | Latitude | Longitude | Altitude | Speed | Heading |
|---|---|---|---|---|---|
| 2026-04-26 15:33 | -34.55759 | -58.41325 | 52 ft | 0 kts | 34° |
| 2026-04-26 16:22 | -34.55777 | -58.41339 | 25 ft | 4 kts | 30° |
| 2026-04-26 16:22 | -34.55798 | -58.41348 | 25 ft | 4 kts | 336° |
| 2026-04-26 16:22 | -34.55811 | -58.41330 | 30 ft | 4 kts | 302° |
| 2026-04-26 16:23 | -34.55822 | -58.41310 | 28 ft | 0 kts | 301° |
| 2026-04-26 16:25 | -34.55808 | -58.41337 | 30 ft | 9 kts | 303° |
| 2026-04-26 16:25 | -34.55765 | -58.41414 | 26 ft | 11 kts | 304° |
| 2026-04-26 16:25 | -34.55726 | -58.41496 | 27 ft | 11 kts | 295° |
| 2026-04-26 16:26 | -34.55753 | -58.41573 | 24 ft | 11 kts | 217° |
| 2026-04-26 16:26 | -34.55815 | -58.41559 | 28 ft | 11 kts | 123° |
| 2026-04-26 16:26 | -34.55850 | -58.41478 | 28 ft | 12 kts | 117° |
| 2026-04-26 16:26 | -34.55895 | -58.41372 | 27 ft | 17 kts | 117° |
| 2026-04-26 16:27 | -34.55964 | -58.41237 | 28 ft | 21 kts | 127° |
| 2026-04-26 16:27 | -34.56050 | -58.41098 | 28 ft | 20 kts | 127° |
| 2026-04-26 16:27 | -34.56133 | -58.40963 | 25 ft | 20 kts | 124° |
| 2026-04-26 16:27 | -34.56188 | -58.40815 | 25 ft | 19 kts | 109° |
| 2026-04-26 16:28 | -34.56247 | -58.40695 | 27 ft | 15 kts | 124° |
| 2026-04-26 16:28 | -34.56304 | -58.40594 | 28 ft | 14 kts | 129° |
| 2026-04-26 16:28 | -34.56375 | -58.40513 | 25 ft | 13 kts | 137° |
| 2026-04-26 16:28 | -34.56440 | -58.40442 | 26 ft | 13 kts | 138° |
| 2026-04-26 16:29 | -34.56511 | -58.40384 | 25 ft | 12 kts | 181° |
| 2026-04-26 16:29 | -34.56548 | -58.40455 | 25 ft | 12 kts | 294° |
| 2026-04-26 16:29 | -34.56539 | -58.40474 | 27 ft | 3 kts | 301° |
| 2026-04-26 16:29 | -34.56409 | -58.40710 | 27 ft | 71 kts | 304° |
| 2026-04-26 16:30 | -34.56001 | -58.41442 | 27 ft | 136 kts | 304° |
| 2026-04-26 16:30 | -34.55408 | -58.42504 | 409 ft | 157 kts | 301° |
| 2026-04-26 16:30 | -34.54765 | -58.43590 | 1150 ft | 162 kts | 311° |
| 2026-04-26 16:30 | -34.53683 | -58.44233 | 1587 ft | 198 kts | 354° |
| 2026-04-26 16:31 | -34.52282 | -58.43762 | 1818 ft | 230 kts | 27° |
| 2026-04-26 16:31 | -34.51102 | -58.42287 | 2044 ft | 259 kts | 63° |
| 2026-04-26 16:31 | -34.50822 | -58.40090 | 2537 ft | 274 kts | 99° |
| 2026-04-26 16:31 | -34.51520 | -58.37959 | 3244 ft | 276 kts | 131° |
| 2026-04-26 16:32 | -34.52976 | -58.36534 | 4082 ft | 266 kts | 165° |
| 2026-04-26 16:32 | -34.54147 | -58.36238 | 4672 ft | 256 kts | 185° |
| 2026-04-26 16:32 | -34.56518 | -58.36381 | 5769 ft | 259 kts | 191° |
| 2026-04-26 16:32 | -34.58333 | -58.36576 | 6527 ft | 264 kts | 192° |
| 2026-04-26 16:33 | -34.60178 | -58.36774 | 7307 ft | 268 kts | 192° |
| 2026-04-26 16:33 | -34.62049 | -58.36966 | 8091 ft | 273 kts | 192° |
| 2026-04-26 16:33 | -34.63959 | -58.37152 | 8879 ft | 277 kts | 192° |
| 2026-04-26 16:33 | -34.65901 | -58.37334 | 9619 ft | 283 kts | 192° |
| 2026-04-26 16:34 | -34.67885 | -58.37515 | 10243 ft | 292 kts | 193° |
| 2026-04-26 16:34 | -34.69995 | -58.37711 | 10430 ft | 317 kts | 192° |
| 2026-04-26 16:34 | -34.72279 | -58.37919 | 10602 ft | 340 kts | 192° |
| 2026-04-26 16:34 | -34.74690 | -58.38130 | 10946 ft | 354 kts | 191° |
| 2026-04-26 16:35 | -34.77176 | -58.38335 | 11573 ft | 360 kts | 191° |
| 2026-04-26 16:35 | -34.79691 | -58.38536 | 12311 ft | 364 kts | 191° |
| 2026-04-26 16:35 | -34.82197 | -58.38736 | 13034 ft | 368 kts | 192° |
| 2026-04-26 16:35 | -34.84769 | -58.38944 | 13711 ft | 374 kts | 192° |
| 2026-04-26 16:36 | -34.87417 | -58.39161 | 14372 ft | 378 kts | 192° |
| 2026-04-26 16:36 | -34.90015 | -58.39373 | 15130 ft | 380 kts | 192° |
| 2026-04-26 16:36 | -34.92687 | -58.39591 | 15892 ft | 382 kts | 193° |
| 2026-04-26 16:36 | -34.95349 | -58.39810 | 16617 ft | 385 kts | 193° |
| 2026-04-26 16:37 | -34.98032 | -58.40033 | 17317 ft | 388 kts | 193° |
| 2026-04-26 16:37 | -35.00738 | -58.40259 | 18023 ft | 391 kts | 194° |
| 2026-04-26 16:37 | -35.03429 | -58.40483 | 18651 ft | 394 kts | 194° |
| 2026-04-26 16:37 | -35.05283 | -58.40637 | 19066 ft | 396 kts | 194° |
| 2026-04-26 16:38 | -35.08933 | -58.40941 | 19859 ft | 399 kts | 194° |
| 2026-04-26 16:38 | -35.11712 | -58.41173 | 20450 ft | 402 kts | 195° |
| 2026-04-26 16:38 | -35.14510 | -58.41406 | 21040 ft | 404 kts | 195° |
| 2026-04-26 16:38 | -35.17327 | -58.41641 | 21594 ft | 407 kts | 195° |
| 2026-04-26 16:39 | -35.20164 | -58.41879 | 22137 ft | 410 kts | 195° |
| 2026-04-26 16:39 | -35.23024 | -58.42119 | 22668 ft | 413 kts | 195° |
| 2026-04-26 16:39 | -35.25901 | -58.42360 | 23200 ft | 416 kts | 195° |
| 2026-04-26 16:39 | -35.28801 | -58.42603 | 23664 ft | 419 kts | 195° |
| 2026-04-26 16:40 | -35.31722 | -58.42848 | 24082 ft | 422 kts | 195° |
| 2026-04-26 16:40 | -35.34663 | -58.43095 | 24486 ft | 425 kts | 195° |
| 2026-04-26 16:40 | -35.37624 | -58.43344 | 24889 ft | 428 kts | 195° |
| 2026-04-26 16:40 | -35.40603 | -58.43594 | 25275 ft | 431 kts | 195° |
| 2026-04-26 16:41 | -35.43603 | -58.43846 | 25646 ft | 434 kts | 195° |
| 2026-04-26 16:41 | -35.46624 | -58.44100 | 26020 ft | 437 kts | 195° |
| 2026-04-26 16:41 | -35.49660 | -58.44356 | 26384 ft | 439 kts | 195° |
| 2026-04-26 16:41 | -35.52727 | -58.44613 | 26738 ft | 442 kts | 195° |
| 2026-04-26 16:42 | -35.55800 | -58.44872 | 27094 ft | 445 kts | 195° |
| 2026-04-26 16:42 | -35.58898 | -58.45133 | 27429 ft | 448 kts | 195° |
| 2026-04-26 16:42 | -35.62015 | -58.45396 | 27759 ft | 451 kts | 195° |
| 2026-04-26 16:42 | -35.65152 | -58.45660 | 28065 ft | 453 kts | 195° |
| 2026-04-26 16:43 | -35.68310 | -58.45927 | 28387 ft | 456 kts | 195° |
| 2026-04-26 16:43 | -35.71474 | -58.46237 | 28694 ft | 453 kts | 199° |
| 2026-04-26 16:43 | -35.74510 | -58.47035 | 28994 ft | 441 kts | 208° |
| 2026-04-26 16:43 | -35.77359 | -58.48327 | 29294 ft | 432 kts | 215° |
| 2026-04-26 16:44 | -35.79946 | -58.50078 | 29659 ft | 421 kts | 223° |
| 2026-04-26 16:44 | -35.82416 | -58.51997 | 30105 ft | 418 kts | 223° |
| 2026-04-26 16:44 | -35.84863 | -58.53910 | 30515 ft | 416 kts | 223° |
| 2026-04-26 16:44 | -35.87305 | -58.55818 | 30859 ft | 416 kts | 223° |
| 2026-04-26 16:45 | -35.89750 | -58.57723 | 31182 ft | 416 kts | 223° |
| 2026-04-26 16:45 | -35.92199 | -58.59624 | 31520 ft | 415 kts | 223° |
| 2026-04-26 16:45 | -35.94647 | -58.61518 | 31886 ft | 414 kts | 223° |
| 2026-04-26 16:45 | -35.97085 | -58.63400 | 32234 ft | 413 kts | 223° |
| 2026-04-26 16:46 | -35.99524 | -58.65284 | 32569 ft | 413 kts | 223° |
| 2026-04-26 16:46 | -36.01959 | -58.67165 | 32897 ft | 413 kts | 223° |
| 2026-04-26 16:46 | -36.04420 | -58.69067 | 33245 ft | 412 kts | 224° |
| 2026-04-26 16:46 | -36.06568 | -58.70727 | 33541 ft | 411 kts | 224° |
| 2026-04-26 16:47 | -36.09051 | -58.72648 | 33875 ft | 410 kts | 224° |
| 2026-04-26 16:47 | -36.11467 | -58.74520 | 34141 ft | 410 kts | 224° |
| 2026-04-26 16:47 | -36.13885 | -58.76394 | 34380 ft | 410 kts | 224° |
| 2026-04-26 16:47 | -36.16302 | -58.78271 | 34606 ft | 410 kts | 224° |
| 2026-04-26 16:48 | -36.18684 | -58.80121 | 34867 ft | 410 kts | 223° |
| 2026-04-26 16:48 | -36.21127 | -58.82018 | 35128 ft | 409 kts | 223° |
| 2026-04-26 16:48 | -36.23537 | -58.83892 | 35360 ft | 409 kts | 223° |
| 2026-04-26 16:48 | -36.25948 | -58.85769 | 35589 ft | 409 kts | 223° |
| 2026-04-26 16:49 | -36.28359 | -58.87645 | 35847 ft | 409 kts | 223° |
| 2026-04-26 16:49 | -36.30764 | -58.89519 | 36077 ft | 408 kts | 223° |
| 2026-04-26 16:49 | -36.33168 | -58.91395 | 36299 ft | 409 kts | 223° |
| 2026-04-26 16:49 | -36.35539 | -58.93245 | 36524 ft | 408 kts | 223° |
| 2026-04-26 16:50 | -36.37971 | -58.95144 | 36768 ft | 408 kts | 223° |
| 2026-04-26 16:50 | -36.40341 | -58.96996 | 37001 ft | 407 kts | 223° |
| 2026-04-26 16:50 | -36.42736 | -58.98869 | 37243 ft | 407 kts | 222° |
| 2026-04-26 16:50 | -36.45161 | -59.00767 | 37440 ft | 407 kts | 222° |
| 2026-04-26 16:51 | -36.47527 | -59.02621 | 37636 ft | 407 kts | 222° |
| 2026-04-26 16:51 | -36.49917 | -59.04495 | 37827 ft | 407 kts | 222° |
| 2026-04-26 16:51 | -36.54735 | -59.08279 | 37822 ft | 410 kts | 222° |
| 2026-04-26 16:52 | -36.57955 | -59.10806 | 37823 ft | 407 kts | 222° |
| 2026-04-26 16:52 | -36.64297 | -59.15792 | 37820 ft | 403 kts | 222° |
| 2026-04-26 16:53 | -36.66669 | -59.17660 | 38224 ft | 404 kts | 219° |
| 2026-04-26 16:53 | -36.69058 | -59.19542 | 38028 ft | 409 kts | 219° |
| 2026-04-26 16:53 | -36.73886 | -59.23363 | 37890 ft | 412 kts | 219° |
| 2026-04-26 16:54 | -36.78731 | -59.27195 | 37830 ft | 412 kts | 219° |
| 2026-04-26 16:54 | -36.83599 | -59.31048 | 37828 ft | 411 kts | 219° |
| 2026-04-26 16:55 | -36.88429 | -59.34877 | 37824 ft | 411 kts | 219° |
| 2026-04-26 16:55 | -36.93246 | -59.38702 | 37816 ft | 410 kts | 219° |
| 2026-04-26 16:56 | -37.00451 | -59.44436 | 37806 ft | 409 kts | 219° |
| 2026-04-26 16:57 | -37.04437 | -59.47615 | 37805 ft | 409 kts | 219° |
| 2026-04-26 16:57 | -37.11626 | -59.53357 | 37806 ft | 409 kts | 219° |
| 2026-04-26 16:58 | -37.15613 | -59.56546 | 37808 ft | 409 kts | 219° |
| 2026-04-26 16:59 | -37.23548 | -59.63098 | 37818 ft | 409 kts | 220° |
| 2026-04-26 17:00 | -37.33001 | -59.71152 | 37824 ft | 412 kts | 220° |
| 2026-04-26 17:00 | -37.40128 | -59.77209 | 37819 ft | 413 kts | 220° |
| 2026-04-26 17:01 | -37.44889 | -59.81260 | 37821 ft | 414 kts | 219° |
| 2026-04-26 17:01 | -37.49657 | -59.85323 | 37823 ft | 414 kts | 219° |
| 2026-04-26 17:02 | -37.54431 | -59.89397 | 37828 ft | 415 kts | 219° |
| 2026-04-26 17:02 | -37.59211 | -59.93483 | 37825 ft | 415 kts | 219° |
| 2026-04-26 17:03 | -37.63996 | -59.97580 | 37823 ft | 416 kts | 219° |
| 2026-04-26 17:03 | -37.68781 | -60.01684 | 37813 ft | 416 kts | 219° |
| 2026-04-26 17:04 | -37.73566 | -60.05793 | 37827 ft | 416 kts | 219° |
| 2026-04-26 17:04 | -37.78346 | -60.09906 | 37827 ft | 416 kts | 219° |
| 2026-04-26 17:05 | -37.83096 | -60.13999 | 37817 ft | 416 kts | 219° |
| 2026-04-26 17:05 | -37.87878 | -60.18126 | 37817 ft | 416 kts | 219° |
| 2026-04-26 17:06 | -37.92663 | -60.22263 | 37815 ft | 416 kts | 219° |
| 2026-04-26 17:06 | -37.97478 | -60.26432 | 37816 ft | 417 kts | 219° |
| 2026-04-26 17:07 | -38.02236 | -60.30558 | 37813 ft | 417 kts | 219° |
| 2026-04-26 17:07 | -38.07020 | -60.34714 | 37809 ft | 417 kts | 218° |
| 2026-04-26 17:08 | -38.11815 | -60.38886 | 37810 ft | 418 kts | 218° |
| 2026-04-26 17:08 | -38.16613 | -60.43060 | 37806 ft | 418 kts | 218° |
| 2026-04-26 17:09 | -38.20665 | -60.46505 | 37799 ft | 419 kts | 217° |
| 2026-04-26 17:09 | -38.26309 | -60.51268 | 37804 ft | 419 kts | 217° |
| 2026-04-26 17:10 | -38.31192 | -60.55404 | 37793 ft | 419 kts | 217° |
| 2026-04-26 17:10 | -38.36045 | -60.59529 | 37792 ft | 419 kts | 217° |
| 2026-04-26 17:11 | -38.40854 | -60.63627 | 37794 ft | 419 kts | 217° |
| 2026-04-26 17:11 | -38.45694 | -60.67759 | 37790 ft | 418 kts | 217° |
| 2026-04-26 17:12 | -38.52943 | -60.73960 | 37793 ft | 418 kts | 217° |
| 2026-04-26 17:13 | -38.60215 | -60.80196 | 37789 ft | 418 kts | 217° |
| 2026-04-26 17:14 | -38.67445 | -60.86412 | 37793 ft | 417 kts | 217° |
| 2026-04-26 17:14 | -38.74651 | -60.92622 | 37794 ft | 416 kts | 217° |
| 2026-04-26 17:15 | -38.81804 | -60.98802 | 37789 ft | 415 kts | 217° |
| 2026-04-26 17:16 | -38.86611 | -61.02963 | 37795 ft | 414 kts | 217° |
| 2026-04-26 17:16 | -38.91356 | -61.07079 | 37798 ft | 414 kts | 216° |
| 2026-04-26 17:17 | -38.96155 | -61.11247 | 37782 ft | 414 kts | 216° |
| 2026-04-26 17:17 | -39.00915 | -61.15388 | 37792 ft | 413 kts | 216° |
| 2026-04-26 17:18 | -39.05667 | -61.19529 | 37787 ft | 412 kts | 216° |
| 2026-04-26 17:18 | -39.10403 | -61.23664 | 37788 ft | 411 kts | 216° |
| 2026-04-26 17:19 | -39.17490 | -61.29863 | 37803 ft | 410 kts | 216° |
| 2026-04-26 17:19 | -39.22211 | -61.34001 | 37784 ft | 410 kts | 216° |
| 2026-04-26 17:20 | -39.26127 | -61.37438 | 37791 ft | 410 kts | 216° |
| 2026-04-26 17:20 | -39.31628 | -61.42276 | 37792 ft | 409 kts | 216° |
| 2026-04-26 17:21 | -39.36328 | -61.46417 | 37806 ft | 410 kts | 216° |
| 2026-04-26 17:21 | -39.41017 | -61.50553 | 37800 ft | 412 kts | 216° |
| 2026-04-26 17:22 | -39.45764 | -61.54749 | 37782 ft | 414 kts | 216° |
| 2026-04-26 17:22 | -39.50502 | -61.58944 | 37798 ft | 412 kts | 216° |
| 2026-04-26 17:23 | -39.55224 | -61.63131 | 37797 ft | 410 kts | 216° |
| 2026-04-26 17:23 | -39.59923 | -61.67305 | 37802 ft | 409 kts | 215° |
| 2026-04-26 17:24 | -39.64604 | -61.71470 | 37806 ft | 407 kts | 215° |
| 2026-04-26 17:24 | -39.69268 | -61.75629 | 37807 ft | 407 kts | 215° |
| 2026-04-26 17:25 | -39.73925 | -61.79786 | 37812 ft | 406 kts | 215° |
| 2026-04-26 17:25 | -39.78580 | -61.83950 | 37820 ft | 406 kts | 215° |
| 2026-04-26 17:26 | -39.83233 | -61.88118 | 37819 ft | 407 kts | 215° |
| 2026-04-26 17:26 | -39.87867 | -61.92360 | 37819 ft | 407 kts | 218° |
| 2026-04-26 17:27 | -39.92270 | -61.97006 | 37851 ft | 408 kts | 219° |
| 2026-04-26 17:27 | -39.96634 | -62.01747 | 37850 ft | 409 kts | 219° |
| 2026-04-26 17:28 | -40.01017 | -62.06491 | 37858 ft | 410 kts | 219° |
| 2026-04-26 17:28 | -40.05413 | -62.11228 | 37866 ft | 411 kts | 219° |
| 2026-04-26 17:29 | -40.09111 | -62.15210 | 37877 ft | 412 kts | 219° |
| 2026-04-26 17:29 | -40.14262 | -62.20763 | 37869 ft | 413 kts | 219° |
| 2026-04-26 17:30 | -40.18690 | -62.25547 | 37875 ft | 413 kts | 219° |
| 2026-04-26 17:30 | -40.23118 | -62.30339 | 37885 ft | 413 kts | 219° |
| 2026-04-26 17:31 | -40.27544 | -62.35137 | 37891 ft | 413 kts | 219° |
| 2026-04-26 17:31 | -40.31967 | -62.39940 | 37891 ft | 413 kts | 219° |
| 2026-04-26 17:32 | -40.36394 | -62.44757 | 37899 ft | 413 kts | 219° |
| 2026-04-26 17:32 | -40.40807 | -62.49567 | 37911 ft | 413 kts | 219° |
| 2026-04-26 17:33 | -40.45229 | -62.54394 | 37910 ft | 413 kts | 218° |
| 2026-04-26 17:34 | -40.51837 | -62.61626 | 37920 ft | 412 kts | 218° |
| 2026-04-26 17:34 | -40.56232 | -62.66446 | 37924 ft | 411 kts | 218° |
| 2026-04-26 17:35 | -40.60620 | -62.71266 | 37924 ft | 411 kts | 218° |
| 2026-04-26 17:35 | -40.65004 | -62.76091 | 37928 ft | 410 kts | 218° |
| 2026-04-26 17:36 | -40.69374 | -62.80909 | 37923 ft | 410 kts | 218° |
| 2026-04-26 17:36 | -40.73739 | -62.85730 | 37921 ft | 409 kts | 218° |
| 2026-04-26 17:37 | -40.78100 | -62.90556 | 37913 ft | 409 kts | 218° |
| 2026-04-26 17:37 | -40.82456 | -62.95385 | 37912 ft | 409 kts | 218° |
| 2026-04-26 17:38 | -40.89110 | -63.02414 | 37920 ft | 407 kts | 213° |
| 2026-04-26 17:38 | -40.92976 | -63.05960 | 37908 ft | 407 kts | 213° |
| 2026-04-26 17:39 | -40.97652 | -63.10213 | 37921 ft | 408 kts | 213° |
| 2026-04-26 17:39 | -41.02312 | -63.14485 | 37935 ft | 408 kts | 213° |
| 2026-04-26 17:40 | -41.06215 | -63.18086 | 37952 ft | 408 kts | 213° |
| 2026-04-26 17:40 | -41.11623 | -63.23094 | 37970 ft | 408 kts | 213° |
| 2026-04-26 17:41 | -41.16273 | -63.27410 | 37993 ft | 408 kts | 213° |
| 2026-04-26 17:41 | -41.20927 | -63.31738 | 37995 ft | 408 kts | 213° |
| 2026-04-26 17:42 | -41.25567 | -63.36060 | 38003 ft | 408 kts | 213° |
| 2026-04-26 17:42 | -41.27896 | -63.38232 | 37762 ft | 412 kts | 213° |
| 2026-04-26 17:42 | -41.30250 | -63.40428 | 37251 ft | 412 kts | 213° |
| 2026-04-26 17:43 | -41.32581 | -63.42607 | 36675 ft | 409 kts | 212° |
| 2026-04-26 17:43 | -41.34906 | -63.44782 | 36046 ft | 407 kts | 212° |
| 2026-04-26 17:43 | -41.37216 | -63.46945 | 35384 ft | 407 kts | 212° |
| 2026-04-26 17:43 | -41.39533 | -63.49116 | 34693 ft | 406 kts | 212° |
| 2026-04-26 17:44 | -41.41841 | -63.51280 | 33982 ft | 406 kts | 211° |
| 2026-04-26 17:44 | -41.44149 | -63.53445 | 33131 ft | 405 kts | 211° |
| 2026-04-26 17:44 | -41.46440 | -63.55598 | 32582 ft | 399 kts | 211° |
| 2026-04-26 17:44 | -41.48691 | -63.57717 | 32034 ft | 394 kts | 211° |
| 2026-04-26 17:45 | -41.50913 | -63.59810 | 31514 ft | 388 kts | 210° |
| 2026-04-26 17:45 | -41.53103 | -63.61874 | 31009 ft | 383 kts | 210° |
| 2026-04-26 17:45 | -41.55258 | -63.63906 | 30518 ft | 378 kts | 210° |
| 2026-04-26 17:45 | -41.57393 | -63.65921 | 30004 ft | 373 kts | 210° |
| 2026-04-26 17:46 | -41.59499 | -63.67908 | 29421 ft | 368 kts | 210° |
| 2026-04-26 17:46 | -41.61573 | -63.69868 | 28910 ft | 363 kts | 210° |
| 2026-04-26 17:46 | -41.63622 | -63.71805 | 28395 ft | 358 kts | 211° |
| 2026-04-26 17:46 | -41.65648 | -63.73721 | 27864 ft | 355 kts | 211° |
| 2026-04-26 17:47 | -41.67655 | -63.75620 | 27361 ft | 352 kts | 211° |
| 2026-04-26 17:47 | -41.68975 | -63.76871 | 27021 ft | 350 kts | 211° |
| 2026-04-26 17:47 | -41.71624 | -63.79382 | 26358 ft | 347 kts | 211° |
| 2026-04-26 17:47 | -41.73593 | -63.81250 | 25870 ft | 346 kts | 211° |
| 2026-04-26 17:48 | -41.75549 | -63.83108 | 25382 ft | 344 kts | 211° |
| 2026-04-26 17:48 | -41.77499 | -63.84961 | 24889 ft | 343 kts | 212° |
| 2026-04-26 17:48 | -41.79446 | -63.86812 | 24385 ft | 343 kts | 212° |
| 2026-04-26 17:48 | -41.81391 | -63.88664 | 23892 ft | 343 kts | 212° |
| 2026-04-26 17:49 | -41.83331 | -63.90512 | 23347 ft | 343 kts | 212° |
| 2026-04-26 17:49 | -41.85272 | -63.92363 | 22809 ft | 341 kts | 212° |
| 2026-04-26 17:49 | -41.87199 | -63.94203 | 22308 ft | 339 kts | 212° |
| 2026-04-26 17:49 | -41.89107 | -63.96025 | 21836 ft | 336 kts | 213° |
| 2026-04-26 17:50 | -41.91006 | -63.97841 | 21353 ft | 334 kts | 213° |
| 2026-04-26 17:50 | -41.92889 | -63.99642 | 20885 ft | 331 kts | 213° |
| 2026-04-26 17:50 | -41.94759 | -64.01432 | 20422 ft | 329 kts | 214° |
| 2026-04-26 17:50 | -41.96622 | -64.03215 | 19968 ft | 327 kts | 214° |
| 2026-04-26 17:51 | -41.98468 | -64.04985 | 19516 ft | 326 kts | 214° |
| 2026-04-26 17:51 | -42.00314 | -64.06754 | 19066 ft | 325 kts | 215° |
| 2026-04-26 17:51 | -42.02148 | -64.08513 | 18619 ft | 324 kts | 215° |
| 2026-04-26 17:51 | -42.03979 | -64.10270 | 18133 ft | 323 kts | 216° |
| 2026-04-26 17:52 | -42.05805 | -64.12026 | 17642 ft | 322 kts | 215° |
| 2026-04-26 17:52 | -42.07621 | -64.13776 | 17187 ft | 320 kts | 215° |
| 2026-04-26 17:52 | -42.09425 | -64.15514 | 16752 ft | 318 kts | 214° |
| 2026-04-26 17:52 | -42.11217 | -64.17242 | 16317 ft | 316 kts | 214° |
| 2026-04-26 17:53 | -42.12999 | -64.18961 | 15879 ft | 314 kts | 214° |
| 2026-04-26 17:53 | -42.14769 | -64.20669 | 15452 ft | 312 kts | 214° |
| 2026-04-26 17:53 | -42.16531 | -64.22371 | 15028 ft | 311 kts | 213° |
| 2026-04-26 17:54 | -42.20030 | -64.25752 | 14185 ft | 308 kts | 213° |
| 2026-04-26 17:54 | -42.21767 | -64.27432 | 13749 ft | 307 kts | 213° |
| 2026-04-26 17:54 | -42.23495 | -64.29105 | 13294 ft | 305 kts | 213° |
| 2026-04-26 17:54 | -42.25213 | -64.30770 | 12867 ft | 304 kts | 213° |
| 2026-04-26 17:55 | -42.26925 | -64.32430 | 12439 ft | 302 kts | 212° |
| 2026-04-26 17:55 | -42.28622 | -64.34076 | 12023 ft | 300 kts | 212° |
| 2026-04-26 17:55 | -42.30308 | -64.35715 | 11617 ft | 298 kts | 212° |
| 2026-04-26 17:55 | -42.31985 | -64.37343 | 11195 ft | 296 kts | 212° |
| 2026-04-26 17:56 | -42.33655 | -64.38965 | 10766 ft | 295 kts | 212° |
| 2026-04-26 17:56 | -42.36912 | -64.42138 | 10358 ft | 279 kts | 212° |
| 2026-04-26 17:57 | -42.39961 | -64.45111 | 10122 ft | 262 kts | 211° |
| 2026-04-26 17:57 | -42.41437 | -64.46548 | 9803 ft | 261 kts | 211° |
| 2026-04-26 17:57 | -42.42897 | -64.47971 | 9484 ft | 257 kts | 211° |
| 2026-04-26 17:57 | -42.44335 | -64.49375 | 9175 ft | 253 kts | 211° |
| 2026-04-26 17:58 | -42.47993 | -64.54412 | 8260 ft | 252 kts | 227° |
| 2026-04-26 17:59 | -42.50027 | -64.58192 | 7651 ft | 248 kts | 227° |
| 2026-04-26 17:59 | -42.51043 | -64.60070 | 7352 ft | 246 kts | 227° |
| 2026-04-26 17:59 | -42.52052 | -64.61929 | 7055 ft | 244 kts | 227° |
| 2026-04-26 17:59 | -42.53053 | -64.63769 | 6767 ft | 242 kts | 226° |
| 2026-04-26 18:00 | -42.54048 | -64.65595 | 6474 ft | 240 kts | 226° |
| 2026-04-26 18:00 | -42.55048 | -64.67428 | 6172 ft | 238 kts | 226° |
| 2026-04-26 18:00 | -42.56030 | -64.69227 | 5808 ft | 238 kts | 226° |
| 2026-04-26 18:00 | -42.57003 | -64.71011 | 5354 ft | 234 kts | 226° |
| 2026-04-26 18:01 | -42.57974 | -64.72789 | 4807 ft | 234 kts | 226° |
| 2026-04-26 18:01 | -42.58939 | -64.74558 | 4331 ft | 231 kts | 226° |
| 2026-04-26 18:01 | -42.59874 | -64.76279 | 4013 ft | 223 kts | 226° |
| 2026-04-26 18:01 | -42.60776 | -64.77939 | 3698 ft | 215 kts | 226° |
| 2026-04-26 18:02 | -42.61649 | -64.79544 | 3385 ft | 208 kts | 226° |
| 2026-04-26 18:02 | -42.62206 | -64.80589 | 3174 ft | 205 kts | 229° |
| 2026-04-26 18:02 | -42.63206 | -64.82721 | 2821 ft | 195 kts | 231° |
| 2026-04-26 18:02 | -42.63913 | -64.84262 | 2522 ft | 190 kts | 231° |
| 2026-04-26 18:03 | -42.64603 | -64.85761 | 2232 ft | 185 kts | 231° |
| 2026-04-26 18:03 | -42.65266 | -64.87195 | 2118 ft | 173 kts | 230° |
| 2026-04-26 18:03 | -42.65916 | -64.88548 | 2079 ft | 169 kts | 229° |
| 2026-04-26 18:03 | -42.66550 | -64.89890 | 2076 ft | 169 kts | 230° |
| 2026-04-26 18:04 | -42.67169 | -64.91222 | 2090 ft | 166 kts | 230° |
| 2026-04-26 18:04 | -42.67759 | -64.92509 | 2078 ft | 155 kts | 230° |
| 2026-04-26 18:04 | -42.68328 | -64.93746 | 2087 ft | 156 kts | 230° |
| 2026-04-26 18:05 | -42.69466 | -64.96221 | 2083 ft | 154 kts | 230° |
| 2026-04-26 18:05 | -42.70032 | -64.97455 | 2092 ft | 154 kts | 230° |
| 2026-04-26 18:05 | -42.70586 | -64.98666 | 2083 ft | 144 kts | 229° |
| 2026-04-26 18:05 | -42.71095 | -64.99778 | 2004 ft | 135 kts | 229° |
| 2026-04-26 18:06 | -42.71565 | -65.00802 | 1849 ft | 123 kts | 228° |
| 2026-04-26 18:06 | -42.72010 | -65.01769 | 1697 ft | 120 kts | 228° |
| 2026-04-26 18:06 | -42.72455 | -65.02733 | 1547 ft | 122 kts | 227° |
| 2026-04-26 18:06 | -42.72911 | -65.03722 | 1379 ft | 123 kts | 229° |
| 2026-04-26 18:07 | -42.73360 | -65.04701 | 1219 ft | 121 kts | 228° |
| 2026-04-26 18:07 | -42.73805 | -65.05684 | 1078 ft | 122 kts | 229° |
| 2026-04-26 18:07 | -42.74255 | -65.06667 | 903 ft | 123 kts | 230° |
| 2026-04-26 18:07 | -42.74556 | -65.07343 | 802 ft | 125 kts | 231° |
| 2026-04-26 18:08 | -42.75169 | -65.08640 | 544 ft | 122 kts | 236° |
| 2026-04-26 18:08 | -42.75608 | -65.09590 | 434 ft | 106 kts | 238° |
| 2026-04-26 18:08 | -42.75913 | -65.10253 | 439 ft | 51 kts | 238° |
| 2026-04-26 18:08 | -42.76012 | -65.10463 | 442 ft | 14 kts | 230° |
| 2026-04-26 18:09 | -42.76045 | -65.10499 | 442 ft | 0 kts | 233° |
| 2026-04-26 18:09 | -42.76042 | -65.10522 | 430 ft | 6 kts | 289° |
| 2026-04-26 18:09 | -42.76025 | -65.10543 | 438 ft | 1 kts | 349° |
| 2026-04-26 18:09 | -42.76005 | -65.10524 | 442 ft | 6 kts | 54° |
| 2026-04-26 18:10 | -42.75981 | -65.10404 | 442 ft | 22 kts | 73° |
| 2026-04-26 18:10 | -42.75883 | -65.10190 | 434 ft | 28 kts | 57° |
| 2026-04-26 18:10 | -42.75797 | -65.10007 | 436 ft | 17 kts | 58° |
| 2026-04-26 18:10 | -42.75722 | -65.09911 | 434 ft | 13 kts | 356° |
| 2026-04-26 18:11 | -42.75652 | -65.09971 | 435 ft | 11 kts | 324° |
| 2026-04-26 18:11 | -42.75620 | -65.10001 | 444 ft | 5 kts | 328° |
| 2026-04-26 18:11 | -42.75592 | -65.10025 | 444 ft | 5 kts | 328° |
| 2026-04-26 18:11 | -42.75576 | -65.10061 | 438 ft | 5 kts | 274° |
| 2026-04-26 18:12 | -42.75560 | -65.10088 | 434 ft | 4 kts | 358° |
| 2026-04-26 18:12 | -42.75550 | -65.10076 | 440 ft | 0 kts | 58° |